sensor_id;sensor_type;location;lat;lon;timestamp;pressure;altitude;pressure_sealevel;temperature;humidity
78198;BME280;67472;51.554;7.812;2023-10-13T00:01:42;100555.66;;;18.46;100.00
78198;BME280;67472;51.554;7.812;2023-10-13T00:04:29;100548.44;;;18.54;100.00
78198;BME280;67472;51.554;7.812;2023-10-13T00:07:20;100543.63;;;18.50;100.00
78198;BME280;67472;51.554;7.812;2023-10-13T00:10:09;100539.31;;;18.63;100.00
78198;BME280;67472;51.554;7.812;2023-10-13T00:13:03;100529.59;;;18.48;100.00
78198;BME280;67472;51.554;7.812;2023-10-13T00:15:59;100534.41;;;18.52;100.00
78198;BME280;67472;51.554;7.812;2023-10-13T00:18:45;100530.59;;;18.47;100.00
78198;BME280;67472;51.554;7.812;2023-10-13T00:21:32;100528.28;;;18.44;100.00
78198;BME280;67472;51.554;7.812;2023-10-13T00:24:20;100523.72;;;18.67;100.00
78198;BME280;67472;51.554;7.812;2023-10-13T00:27:09;100520.22;;;18.67;100.00
78198;BME280;67472;51.554;7.812;2023-10-13T00:30:12;100519.66;;;18.56;100.00
78198;BME280;67472;51.554;7.812;2023-10-13T00:33:08;100511.16;;;18.53;100.00
78198;BME280;67472;51.554;7.812;2023-10-13T00:35:54;100516.25;;;18.63;100.00
78198;BME280;67472;51.554;7.812;2023-10-13T00:38:42;100506.94;;;18.58;100.00
78198;BME280;67472;51.554;7.812;2023-10-13T00:41:33;100509.69;;;18.50;100.00
78198;BME280;67472;51.554;7.812;2023-10-13T00:44:35;100513.47;;;18.56;100.00
78198;BME280;67472;51.554;7.812;2023-10-13T00:47:26;100497.22;;;18.57;100.00
78198;BME280;67472;51.554;7.812;2023-10-13T00:50:34;100496.59;;;18.70;100.00
78198;BME280;67472;51.554;7.812;2023-10-13T00:53:21;100489.22;;;18.72;100.00
78198;BME280;67472;51.554;7.812;2023-10-13T00:56:08;100472.53;;;18.70;100.00
78198;BME280;67472;51.554;7.812;2023-10-13T00:59:03;100476.66;;;18.73;100.00
78198;BME280;67472;51.554;7.812;2023-10-13T01:01:49;100473.47;;;18.77;100.00
78198;BME280;67472;51.554;7.812;2023-10-13T01:04:39;100465.34;;;18.85;100.00
78198;BME280;67472;51.554;7.812;2023-10-13T01:07:27;100464.69;;;18.83;100.00
78198;BME280;67472;51.554;7.812;2023-10-13T01:10:12;100457.94;;;18.87;100.00
78198;BME280;67472;51.554;7.812;2023-10-13T01:12:59;100457.03;;;18.80;100.00
78198;BME280;67472;51.554;7.812;2023-10-13T01:15:47;100452.78;;;18.71;100.00
78198;BME280;67472;51.554;7.812;2023-10-13T01:18:36;100450.00;;;18.79;100.00
78198;BME280;67472;51.554;7.812;2023-10-13T01:21:32;100444.84;;;18.78;100.00
78198;BME280;67472;51.554;7.812;2023-10-13T01:24:20;100438.47;;;18.79;100.00
78198;BME280;67472;51.554;7.812;2023-10-13T01:27:09;100434.91;;;18.72;100.00
78198;BME280;67472;51.554;7.812;2023-10-13T01:30:02;100436.84;;;18.63;100.00
78198;BME280;67472;51.554;7.812;2023-10-13T01:32:50;100441.63;;;18.68;100.00
78198;BME280;67472;51.554;7.812;2023-10-13T01:35:36;100441.03;;;18.72;100.00
78198;BME280;67472;51.554;7.812;2023-10-13T01:38:27;100437.19;;;18.75;100.00
78198;BME280;67472;51.554;7.812;2023-10-13T01:41:13;100435.16;;;18.77;100.00
78198;BME280;67472;51.554;7.812;2023-10-13T01:43:59;100428.34;;;18.74;100.00
78198;BME280;67472;51.554;7.812;2023-10-13T01:46:44;100427.13;;;18.77;100.00
78198;BME280;67472;51.554;7.812;2023-10-13T01:49:33;100422.69;;;18.69;100.00
78198;BME280;67472;51.554;7.812;2023-10-13T01:52:26;100415.78;;;18.75;100.00
78198;BME280;67472;51.554;7.812;2023-10-13T01:55:12;100415.84;;;18.81;100.00
78198;BME280;67472;51.554;7.812;2023-10-13T01:58:01;100405.81;;;18.83;100.00
78198;BME280;67472;51.554;7.812;2023-10-13T02:00:46;100407.19;;;18.79;100.00
78198;BME280;67472;51.554;7.812;2023-10-13T02:03:33;100411.72;;;18.79;100.00
78198;BME280;67472;51.554;7.812;2023-10-13T02:06:21;100407.44;;;18.84;100.00
78198;BME280;67472;51.554;7.812;2023-10-13T02:09:08;100404.78;;;18.84;100.00
78198;BME280;67472;51.554;7.812;2023-10-13T02:11:59;100395.75;;;18.85;100.00
78198;BME280;67472;51.554;7.812;2023-10-13T02:14:46;100388.94;;;19.04;100.00
78198;BME280;67472;51.554;7.812;2023-10-13T02:17:32;100387.69;;;19.00;100.00
78198;BME280;67472;51.554;7.812;2023-10-13T02:20:25;100380.44;;;19.15;100.00
78198;BME280;67472;51.554;7.812;2023-10-13T02:23:18;100366.56;;;19.26;100.00
78198;BME280;67472;51.554;7.812;2023-10-13T02:26:05;100359.69;;;19.02;100.00
78198;BME280;67472;51.554;7.812;2023-10-13T02:28:58;100356.81;;;19.04;100.00
78198;BME280;67472;51.554;7.812;2023-10-13T02:31:47;100354.22;;;19.10;100.00
78198;BME280;67472;51.554;7.812;2023-10-13T02:34:39;100341.28;;;19.14;100.00
78198;BME280;67472;51.554;7.812;2023-10-13T02:37:28;100336.06;;;19.06;100.00
78198;BME280;67472;51.554;7.812;2023-10-13T02:40:14;100327.44;;;19.10;100.00
78198;BME280;67472;51.554;7.812;2023-10-13T02:43:00;100325.34;;;19.06;100.00
78198;BME280;67472;51.554;7.812;2023-10-13T02:45:51;100319.66;;;19.15;100.00
78198;BME280;67472;51.554;7.812;2023-10-13T02:48:44;100319.28;;;18.97;100.00
78198;BME280;67472;51.554;7.812;2023-10-13T02:51:37;100319.41;;;18.89;100.00
78198;BME280;67472;51.554;7.812;2023-10-13T02:54:28;100311.31;;;19.04;100.00
78198;BME280;67472;51.554;7.812;2023-10-13T02:57:16;100306.63;;;19.06;100.00
78198;BME280;67472;51.554;7.812;2023-10-13T03:00:02;100306.41;;;19.29;100.00
78198;BME280;67472;51.554;7.812;2023-10-13T03:02:58;100300.06;;;19.30;100.00
78198;BME280;67472;51.554;7.812;2023-10-13T03:05:45;100294.66;;;19.44;100.00
78198;BME280;67472;51.554;7.812;2023-10-13T03:08:31;100291.63;;;19.33;100.00
78198;BME280;67472;51.554;7.812;2023-10-13T03:11:16;100295.19;;;19.18;100.00
78198;BME280;67472;51.554;7.812;2023-10-13T03:14:05;100294.31;;;19.11;100.00
78198;BME280;67472;51.554;7.812;2023-10-13T03:16:52;100289.44;;;19.22;100.00
78198;BME280;67472;51.554;7.812;2023-10-13T03:19:38;100280.66;;;19.28;100.00
78198;BME280;67472;51.554;7.812;2023-10-13T03:22:25;100275.94;;;19.30;100.00
78198;BME280;67472;51.554;7.812;2023-10-13T03:25:16;100269.16;;;19.34;100.00
78198;BME280;67472;51.554;7.812;2023-10-13T03:28:09;100265.22;;;19.30;100.00
78198;BME280;67472;51.554;7.812;2023-10-13T03:30:58;100252.91;;;19.35;100.00
78198;BME280;67472;51.554;7.812;2023-10-13T03:33:46;100257.38;;;19.28;100.00
78198;BME280;67472;51.554;7.812;2023-10-13T03:36:34;100252.63;;;19.30;100.00
78198;BME280;67472;51.554;7.812;2023-10-13T03:39:39;100247.16;;;19.38;100.00
78198;BME280;67472;51.554;7.812;2023-10-13T03:42:29;100242.25;;;19.42;100.00
78198;BME280;67472;51.554;7.812;2023-10-13T03:45:17;100233.59;;;19.40;100.00
78198;BME280;67472;51.554;7.812;2023-10-13T03:48:07;100235.72;;;19.51;100.00
78198;BME280;67472;51.554;7.812;2023-10-13T03:51:05;100233.94;;;19.37;100.00
78198;BME280;67472;51.554;7.812;2023-10-13T03:53:52;100233.34;;;19.13;100.00
78198;BME280;67472;51.554;7.812;2023-10-13T03:56:40;100241.06;;;19.23;100.00
78198;BME280;67472;51.554;7.812;2023-10-13T03:59:26;100246.56;;;19.15;100.00
78198;BME280;67472;51.554;7.812;2023-10-13T04:02:20;100252.47;;;19.10;100.00
78198;BME280;67472;51.554;7.812;2023-10-13T04:05:06;100251.47;;;19.11;100.00
78198;BME280;67472;51.554;7.812;2023-10-13T04:07:54;100249.47;;;18.99;100.00
78198;BME280;67472;51.554;7.812;2023-10-13T04:10:56;100245.59;;;19.01;100.00
78198;BME280;67472;51.554;7.812;2023-10-13T04:14:01;100248.78;;;19.11;100.00
78198;BME280;67472;51.554;7.812;2023-10-13T04:17:08;100243.59;;;19.10;100.00
78198;BME280;67472;51.554;7.812;2023-10-13T04:20:00;100242.81;;;19.09;100.00
78198;BME280;67472;51.554;7.812;2023-10-13T04:23:11;100237.69;;;18.93;100.00
78198;BME280;67472;51.554;7.812;2023-10-13T04:26:10;100239.75;;;18.91;100.00
78198;BME280;67472;51.554;7.812;2023-10-13T04:29:07;100231.47;;;18.86;100.00
78198;BME280;67472;51.554;7.812;2023-10-13T04:32:12;100242.78;;;18.67;100.00
78198;BME280;67472;51.554;7.812;2023-10-13T04:35:00;100252.81;;;18.80;100.00
78198;BME280;67472;51.554;7.812;2023-10-13T04:37:55;100237.59;;;18.80;100.00
78198;BME280;67472;51.554;7.812;2023-10-13T04:40:45;100227.75;;;18.66;100.00
78198;BME280;67472;51.554;7.812;2023-10-13T04:43:43;100224.38;;;18.79;100.00
78198;BME280;67472;51.554;7.812;2023-10-13T04:46:43;100230.81;;;18.84;100.00
78198;BME280;67472;51.554;7.812;2023-10-13T04:49:40;100223.38;;;18.80;100.00
78198;BME280;67472;51.554;7.812;2023-10-13T04:52:39;100215.78;;;18.83;100.00
78198;BME280;67472;51.554;7.812;2023-10-13T04:55:49;100208.47;;;18.92;100.00
78198;BME280;67472;51.554;7.812;2023-10-13T04:58:52;100209.31;;;18.99;100.00
78198;BME280;67472;51.554;7.812;2023-10-13T05:02:05;100205.66;;;19.00;100.00
78198;BME280;67472;51.554;7.812;2023-10-13T05:05:10;100188.59;;;19.07;100.00
78198;BME280;67472;51.554;7.812;2023-10-13T05:08:16;100183.69;;;19.11;100.00
78198;BME280;67472;51.554;7.812;2023-10-13T05:11:20;100180.63;;;19.14;100.00
78198;BME280;67472;51.554;7.812;2023-10-13T05:14:24;100172.59;;;19.14;100.00
78198;BME280;67472;51.554;7.812;2023-10-13T05:17:29;100164.84;;;19.26;100.00
78198;BME280;67472;51.554;7.812;2023-10-13T05:20:33;100155.31;;;19.16;100.00
78198;BME280;67472;51.554;7.812;2023-10-13T05:23:36;100161.16;;;19.27;100.00
78198;BME280;67472;51.554;7.812;2023-10-13T05:26:54;100144.72;;;19.30;100.00
78198;BME280;67472;51.554;7.812;2023-10-13T05:29:58;100147.91;;;19.18;100.00
78198;BME280;67472;51.554;7.812;2023-10-13T05:33:04;100154.44;;;19.37;100.00
78198;BME280;67472;51.554;7.812;2023-10-13T05:36:10;100147.72;;;19.48;100.00
78198;BME280;67472;51.554;7.812;2023-10-13T05:39:14;100146.78;;;19.34;100.00
78198;BME280;67472;51.554;7.812;2023-10-13T05:42:17;100144.50;;;19.31;100.00
78198;BME280;67472;51.554;7.812;2023-10-13T05:45:20;100146.72;;;19.28;100.00
78198;BME280;67472;51.554;7.812;2023-10-13T05:48:23;100144.09;;;19.34;100.00
78198;BME280;67472;51.554;7.812;2023-10-13T05:51:27;100146.72;;;19.28;100.00
78198;BME280;67472;51.554;7.812;2023-10-13T05:54:31;100146.94;;;19.26;100.00
78198;BME280;67472;51.554;7.812;2023-10-13T05:57:36;100139.75;;;19.27;100.00
78198;BME280;67472;51.554;7.812;2023-10-13T06:00:41;100132.34;;;19.29;100.00
78198;BME280;67472;51.554;7.812;2023-10-13T06:03:46;100137.72;;;19.01;100.00
78198;BME280;67472;51.554;7.812;2023-10-13T06:06:54;100154.97;;;19.26;100.00
78198;BME280;67472;51.554;7.812;2023-10-13T06:10:00;100159.00;;;19.15;100.00
78198;BME280;67472;51.554;7.812;2023-10-13T06:13:03;100163.19;;;19.25;100.00
78198;BME280;67472;51.554;7.812;2023-10-13T06:16:06;100164.03;;;19.25;100.00
78198;BME280;67472;51.554;7.812;2023-10-13T06:19:11;100165.78;;;19.39;100.00
78198;BME280;67472;51.554;7.812;2023-10-13T06:22:14;100173.72;;;19.26;100.00
78198;BME280;67472;51.554;7.812;2023-10-13T06:25:18;100167.53;;;19.26;100.00
78198;BME280;67472;51.554;7.812;2023-10-13T06:28:21;100180.47;;;19.22;100.00
78198;BME280;67472;51.554;7.812;2023-10-13T06:31:26;100186.03;;;19.21;100.00
78198;BME280;67472;51.554;7.812;2023-10-13T06:34:13;100198.00;;;19.25;100.00
78198;BME280;67472;51.554;7.812;2023-10-13T06:37:00;100205.91;;;19.33;100.00
78198;BME280;67472;51.554;7.812;2023-10-13T06:39:46;100199.59;;;19.12;100.00
78198;BME280;67472;51.554;7.812;2023-10-13T06:42:33;100209.47;;;19.12;100.00
78198;BME280;67472;51.554;7.812;2023-10-13T06:45:22;100206.13;;;19.10;100.00
78198;BME280;67472;51.554;7.812;2023-10-13T06:48:14;100208.03;;;19.16;100.00
78198;BME280;67472;51.554;7.812;2023-10-13T06:51:02;100195.53;;;19.23;100.00
78198;BME280;67472;51.554;7.812;2023-10-13T06:54:03;100186.44;;;19.17;100.00
78198;BME280;67472;51.554;7.812;2023-10-13T06:56:54;100186.44;;;19.17;100.00
78198;BME280;67472;51.554;7.812;2023-10-13T06:59:42;100190.13;;;19.16;100.00
78198;BME280;67472;51.554;7.812;2023-10-13T07:02:29;100181.47;;;19.14;100.00
78198;BME280;67472;51.554;7.812;2023-10-13T07:05:18;100174.66;;;19.12;100.00
78198;BME280;67472;51.554;7.812;2023-10-13T07:08:06;100182.53;;;19.20;100.00
78198;BME280;67472;51.554;7.812;2023-10-13T07:10:54;100160.88;;;19.15;100.00
78198;BME280;67472;51.554;7.812;2023-10-13T07:13:49;100168.84;;;19.36;100.00
78198;BME280;67472;51.554;7.812;2023-10-13T07:16:43;100155.34;;;19.51;100.00
78198;BME280;67472;51.554;7.812;2023-10-13T07:19:31;100160.94;;;19.49;100.00
78198;BME280;67472;51.554;7.812;2023-10-13T07:22:18;100144.41;;;19.46;100.00
78198;BME280;67472;51.554;7.812;2023-10-13T07:25:07;100154.13;;;19.53;100.00
78198;BME280;67472;51.554;7.812;2023-10-13T07:27:53;100143.28;;;19.61;100.00
78198;BME280;67472;51.554;7.812;2023-10-13T07:30:41;100142.72;;;19.72;100.00
78198;BME280;67472;51.554;7.812;2023-10-13T07:33:34;100141.66;;;19.67;100.00
78198;BME280;67472;51.554;7.812;2023-10-13T07:36:21;100141.13;;;19.85;100.00
78198;BME280;67472;51.554;7.812;2023-10-13T07:39:13;100134.47;;;19.74;100.00
78198;BME280;67472;51.554;7.812;2023-10-13T07:42:10;100129.22;;;19.94;100.00
78198;BME280;67472;51.554;7.812;2023-10-13T07:45:05;100122.19;;;19.93;100.00
78198;BME280;67472;51.554;7.812;2023-10-13T07:47:51;100104.84;;;19.95;100.00
78198;BME280;67472;51.554;7.812;2023-10-13T07:50:38;100107.16;;;20.05;100.00
78198;BME280;67472;51.554;7.812;2023-10-13T07:53:25;100101.81;;;20.18;100.00
78198;BME280;67472;51.554;7.812;2023-10-13T07:56:13;100100.44;;;20.28;100.00
78198;BME280;67472;51.554;7.812;2023-10-13T07:59:05;100087.88;;;20.42;100.00
78198;BME280;67472;51.554;7.812;2023-10-13T08:01:53;100081.91;;;20.60;100.00
78198;BME280;67472;51.554;7.812;2023-10-13T08:04:57;100067.03;;;20.57;100.00
78198;BME280;67472;51.554;7.812;2023-10-13T08:07:43;100060.44;;;20.66;100.00
78198;BME280;67472;51.554;7.812;2023-10-13T08:10:35;100051.94;;;20.76;100.00
78198;BME280;67472;51.554;7.812;2023-10-13T08:13:21;100051.97;;;20.63;100.00
78198;BME280;67472;51.554;7.812;2023-10-13T08:16:10;100038.53;;;20.82;100.00
78198;BME280;67472;51.554;7.812;2023-10-13T08:19:05;100025.09;;;20.76;100.00
78198;BME280;67472;51.554;7.812;2023-10-13T08:21:56;100015.59;;;20.87;100.00
78198;BME280;67472;51.554;7.812;2023-10-13T08:24:43;100002.97;;;21.00;100.00
78198;BME280;67472;51.554;7.812;2023-10-13T08:27:59;99997.59;;;21.00;100.00
78198;BME280;67472;51.554;7.812;2023-10-13T08:31:13;99999.69;;;20.98;100.00
78198;BME280;67472;51.554;7.812;2023-10-13T08:34:06;99984.81;;;20.89;100.00
78198;BME280;67472;51.554;7.812;2023-10-13T08:37:00;99969.31;;;20.91;100.00
78198;BME280;67472;51.554;7.812;2023-10-13T08:40:03;99967.03;;;20.95;100.00
78198;BME280;67472;51.554;7.812;2023-10-13T08:43:05;99953.34;;;21.16;100.00
78198;BME280;67472;51.554;7.812;2023-10-13T08:45:56;99939.28;;;21.20;100.00
78198;BME280;67472;51.554;7.812;2023-10-13T08:48:46;99921.91;;;21.23;100.00
78198;BME280;67472;51.554;7.812;2023-10-13T08:51:36;99922.63;;;21.43;100.00
78198;BME280;67472;51.554;7.812;2023-10-13T08:54:35;99905.06;;;21.47;100.00
78198;BME280;67472;51.554;7.812;2023-10-13T08:57:30;99901.41;;;21.66;100.00
78198;BME280;67472;51.554;7.812;2023-10-13T09:00:19;99894.81;;;21.62;100.00
78198;BME280;67472;51.554;7.812;2023-10-13T09:03:34;99882.75;;;21.71;100.00
78198;BME280;67472;51.554;7.812;2023-10-13T09:06:26;99869.25;;;21.78;100.00
78198;BME280;67472;51.554;7.812;2023-10-13T09:09:11;99860.91;;;21.61;100.00
78198;BME280;67472;51.554;7.812;2023-10-13T09:12:12;99838.56;;;21.92;100.00
78198;BME280;67472;51.554;7.812;2023-10-13T09:14:59;99838.44;;;22.05;100.00
78198;BME280;67472;51.554;7.812;2023-10-13T09:17:50;99830.03;;;22.20;100.00
78198;BME280;67472;51.554;7.812;2023-10-13T09:20:39;99807.75;;;22.31;100.00
78198;BME280;67472;51.554;7.812;2023-10-13T09:23:31;99810.91;;;22.46;100.00
78198;BME280;67472;51.554;7.812;2023-10-13T09:26:33;99786.66;;;22.64;100.00
78198;BME280;67472;51.554;7.812;2023-10-13T09:29:21;99785.41;;;22.48;100.00
78198;BME280;67472;51.554;7.812;2023-10-13T09:32:07;99778.63;;;22.76;100.00
78198;BME280;67472;51.554;7.812;2023-10-13T09:35:01;99783.28;;;22.87;100.00
78198;BME280;67472;51.554;7.812;2023-10-13T09:37:50;99769.75;;;22.75;100.00
78198;BME280;67472;51.554;7.812;2023-10-13T09:40:37;99761.41;;;22.95;100.00
78198;BME280;67472;51.554;7.812;2023-10-13T09:43:24;99760.16;;;23.09;100.00
78198;BME280;67472;51.554;7.812;2023-10-13T09:46:10;99761.22;;;23.20;100.00
78198;BME280;67472;51.554;7.812;2023-10-13T09:49:12;99752.84;;;23.51;100.00
78198;BME280;67472;51.554;7.812;2023-10-13T09:52:01;99735.22;;;23.37;100.00
78198;BME280;67472;51.554;7.812;2023-10-13T09:55:04;99736.00;;;23.55;100.00
78198;BME280;67472;51.554;7.812;2023-10-13T09:58:01;99712.19;;;23.64;100.00
78198;BME280;67472;51.554;7.812;2023-10-13T10:00:57;99727.66;;;23.69;100.00
78198;BME280;67472;51.554;7.812;2023-10-13T10:03:52;99727.34;;;23.65;100.00
78198;BME280;67472;51.554;7.812;2023-10-13T10:06:52;99724.97;;;23.80;100.00
78198;BME280;67472;51.554;7.812;2023-10-13T10:09:40;99728.81;;;23.96;100.00
78198;BME280;67472;51.554;7.812;2023-10-13T10:12:37;99719.44;;;23.87;100.00
78198;BME280;67472;51.554;7.812;2023-10-13T10:15:29;99715.72;;;23.65;100.00
78198;BME280;67472;51.554;7.812;2023-10-13T10:18:19;99704.00;;;23.59;100.00
78198;BME280;67472;51.554;7.812;2023-10-13T10:21:07;99694.34;;;23.86;100.00
78198;BME280;67472;51.554;7.812;2023-10-13T10:23:54;99691.06;;;23.84;100.00
78198;BME280;67472;51.554;7.812;2023-10-13T10:26:50;99694.94;;;24.00;100.00
78198;BME280;67472;51.554;7.812;2023-10-13T10:29:37;99696.69;;;24.06;100.00
78198;BME280;67472;51.554;7.812;2023-10-13T10:32:38;99696.44;;;24.47;100.00
78198;BME280;67472;51.554;7.812;2023-10-13T10:35:27;99692.78;;;24.53;100.00
78198;BME280;67472;51.554;7.812;2023-10-13T10:38:16;99688.00;;;24.72;100.00
78198;BME280;67472;51.554;7.812;2023-10-13T10:41:09;99697.50;;;24.74;100.00
78198;BME280;67472;51.554;7.812;2023-10-13T10:43:58;99693.75;;;24.76;100.00
78198;BME280;67472;51.554;7.812;2023-10-13T10:46:47;99681.53;;;24.73;99.93
78198;BME280;67472;51.554;7.812;2023-10-13T10:49:43;99686.91;;;24.73;99.93
78198;BME280;67472;51.554;7.812;2023-10-13T10:52:29;99681.09;;;24.64;100.00
78198;BME280;67472;51.554;7.812;2023-10-13T10:55:21;99676.66;;;24.30;99.08
78198;BME280;67472;51.554;7.812;2023-10-13T10:58:12;99690.94;;;24.70;100.00
78198;BME280;67472;51.554;7.812;2023-10-13T11:01:14;99691.72;;;24.83;100.00
78198;BME280;67472;51.554;7.812;2023-10-13T11:04:07;99680.69;;;24.84;100.00
78198;BME280;67472;51.554;7.812;2023-10-13T11:07:04;99655.72;;;24.94;98.82
78198;BME280;67472;51.554;7.812;2023-10-13T11:09:51;99647.63;;;25.10;96.84
78198;BME280;67472;51.554;7.812;2023-10-13T11:12:55;99646.97;;;25.03;96.79
78198;BME280;67472;51.554;7.812;2023-10-13T11:15:42;99654.31;;;24.91;97.59
78198;BME280;67472;51.554;7.812;2023-10-13T11:18:29;99645.50;;;24.96;98.29
78198;BME280;67472;51.554;7.812;2023-10-13T11:21:29;99647.81;;;24.76;97.80
78198;BME280;67472;51.554;7.812;2023-10-13T11:24:16;99636.31;;;24.97;96.78
78198;BME280;67472;51.554;7.812;2023-10-13T11:27:13;99632.84;;;24.85;96.04
78198;BME280;67472;51.554;7.812;2023-10-13T11:30:07;99636.47;;;24.90;99.37
78198;BME280;67472;51.554;7.812;2023-10-13T11:32:57;99637.72;;;24.71;99.15
78198;BME280;67472;51.554;7.812;2023-10-13T11:35:44;99628.88;;;24.87;100.00
78198;BME280;67472;51.554;7.812;2023-10-13T11:38:47;99622.91;;;24.73;100.00
78198;BME280;67472;51.554;7.812;2023-10-13T11:41:37;99624.59;;;24.91;100.00
78198;BME280;67472;51.554;7.812;2023-10-13T11:44:31;99616.66;;;25.01;100.00
78198;BME280;67472;51.554;7.812;2023-10-13T11:47:27;99586.41;;;24.71;97.02
78198;BME280;67472;51.554;7.812;2023-10-13T11:50:32;99597.66;;;24.96;96.13
78198;BME280;67472;51.554;7.812;2023-10-13T11:53:19;99584.88;;;25.08;93.40
78198;BME280;67472;51.554;7.812;2023-10-13T11:56:05;99577.53;;;25.25;93.03
78198;BME280;67472;51.554;7.812;2023-10-13T11:58:55;99579.28;;;25.15;92.26
78198;BME280;67472;51.554;7.812;2023-10-13T12:01:46;99583.94;;;25.19;94.14
78198;BME280;67472;51.554;7.812;2023-10-13T12:04:50;99571.34;;;25.08;94.90
78198;BME280;67472;51.554;7.812;2023-10-13T12:07:39;99560.69;;;25.18;96.33
78198;BME280;67472;51.554;7.812;2023-10-13T12:10:33;99557.44;;;25.00;91.86
78198;BME280;67472;51.554;7.812;2023-10-13T12:13:23;99559.25;;;24.78;91.83
78198;BME280;67472;51.554;7.812;2023-10-13T12:16:11;99559.38;;;25.21;92.58
78198;BME280;67472;51.554;7.812;2023-10-13T12:18:58;99532.78;;;25.35;90.62
78198;BME280;67472;51.554;7.812;2023-10-13T12:21:46;99552.72;;;25.28;88.51
78198;BME280;67472;51.554;7.812;2023-10-13T12:24:33;99534.66;;;25.12;88.85
78198;BME280;67472;51.554;7.812;2023-10-13T12:27:27;99535.13;;;25.26;88.03
78198;BME280;67472;51.554;7.812;2023-10-13T12:30:20;99532.34;;;25.43;88.67
78198;BME280;67472;51.554;7.812;2023-10-13T12:33:22;99548.47;;;25.54;89.45
78198;BME280;67472;51.554;7.812;2023-10-13T12:36:12;99529.41;;;25.44;88.08
78198;BME280;67472;51.554;7.812;2023-10-13T12:39:17;99513.25;;;25.71;86.43
78198;BME280;67472;51.554;7.812;2023-10-13T12:42:21;99521.44;;;25.76;86.28
78198;BME280;67472;51.554;7.812;2023-10-13T12:45:25;99539.50;;;25.70;86.41
78198;BME280;67472;51.554;7.812;2023-10-13T12:48:30;99532.91;;;25.23;88.03
78198;BME280;67472;51.554;7.812;2023-10-13T12:51:33;99515.91;;;25.06;87.97
78198;BME280;67472;51.554;7.812;2023-10-13T12:54:36;99531.28;;;25.22;88.52
78198;BME280;67472;51.554;7.812;2023-10-13T12:57:24;99523.84;;;25.34;88.48
78198;BME280;67472;51.554;7.812;2023-10-13T13:00:12;99525.81;;;25.39;88.09
78198;BME280;67472;51.554;7.812;2023-10-13T13:03:09;99506.13;;;25.43;88.21
78198;BME280;67472;51.554;7.812;2023-10-13T13:06:00;99518.28;;;25.41;88.85
78198;BME280;67472;51.554;7.812;2023-10-13T13:08:52;99509.34;;;25.18;88.47
78198;BME280;67472;51.554;7.812;2023-10-13T13:11:38;99502.06;;;25.02;87.87
78198;BME280;67472;51.554;7.812;2023-10-13T13:14:26;99497.81;;;25.28;86.72
78198;BME280;67472;51.554;7.812;2023-10-13T13:17:13;99493.69;;;25.20;85.32
78198;BME280;67472;51.554;7.812;2023-10-13T13:20:00;99486.44;;;25.04;86.58
78198;BME280;67472;51.554;7.812;2023-10-13T13:22:56;99493.72;;;25.04;88.15
78198;BME280;67472;51.554;7.812;2023-10-13T13:25:47;99498.00;;;25.00;89.52
78198;BME280;67472;51.554;7.812;2023-10-13T13:28:33;99512.31;;;25.00;89.78
78198;BME280;67472;51.554;7.812;2023-10-13T13:31:23;99495.78;;;24.97;90.70
78198;BME280;67472;51.554;7.812;2023-10-13T13:34:13;99500.03;;;24.76;89.53
78198;BME280;67472;51.554;7.812;2023-10-13T13:37:00;99502.03;;;24.64;89.54
78198;BME280;67472;51.554;7.812;2023-10-13T13:39:47;99489.00;;;24.78;88.85
78198;BME280;67472;51.554;7.812;2023-10-13T13:42:37;99489.81;;;24.78;87.03
78198;BME280;67472;51.554;7.812;2023-10-13T13:45:25;99494.25;;;24.67;88.39
78198;BME280;67472;51.554;7.812;2023-10-13T13:48:13;99486.97;;;24.68;88.47
78198;BME280;67472;51.554;7.812;2023-10-13T13:51:03;99485.66;;;24.70;87.99
78198;BME280;67472;51.554;7.812;2023-10-13T13:53:51;99489.00;;;24.78;85.77
78198;BME280;67472;51.554;7.812;2023-10-13T13:56:39;99486.41;;;24.83;84.93
78198;BME280;67472;51.554;7.812;2023-10-13T13:59:25;99488.75;;;24.79;84.28
78198;BME280;67472;51.554;7.812;2023-10-13T14:02:11;99475.50;;;24.78;81.86
78198;BME280;67472;51.554;7.812;2023-10-13T14:05:05;99472.47;;;24.74;82.21
78198;BME280;67472;51.554;7.812;2023-10-13T14:08:00;99490.06;;;24.77;83.15
78198;BME280;67472;51.554;7.812;2023-10-13T14:10:46;99494.25;;;24.67;83.88
78198;BME280;67472;51.554;7.812;2023-10-13T14:13:48;99496.28;;;24.77;85.75
78198;BME280;67472;51.554;7.812;2023-10-13T14:16:34;99491.06;;;24.54;85.91
78198;BME280;67472;51.554;7.812;2023-10-13T14:19:22;99490.91;;;24.44;85.10
78198;BME280;67472;51.554;7.812;2023-10-13T14:22:12;99491.97;;;24.43;86.03
78198;BME280;67472;51.554;7.812;2023-10-13T14:24:59;99487.72;;;24.30;86.31
78198;BME280;67472;51.554;7.812;2023-10-13T14:27:53;99490.41;;;24.30;86.19
78198;BME280;67472;51.554;7.812;2023-10-13T14:30:45;99490.75;;;24.34;87.07
78198;BME280;67472;51.554;7.812;2023-10-13T14:33:31;99487.88;;;24.24;86.24
78198;BME280;67472;51.554;7.812;2023-10-13T14:36:17;99472.59;;;24.29;85.46
78198;BME280;67472;51.554;7.812;2023-10-13T14:39:06;99477.81;;;24.36;84.19
78198;BME280;67472;51.554;7.812;2023-10-13T14:41:54;99487.41;;;24.43;84.89
78198;BME280;67472;51.554;7.812;2023-10-13T14:44:40;99479.31;;;24.43;84.34
78198;BME280;67472;51.554;7.812;2023-10-13T14:47:27;99479.59;;;24.47;83.91
78198;BME280;67472;51.554;7.812;2023-10-13T14:50:14;99480.84;;;24.39;84.86
78198;BME280;67472;51.554;7.812;2023-10-13T14:53:04;99480.50;;;24.36;86.41
78198;BME280;67472;51.554;7.812;2023-10-13T14:55:50;99477.59;;;24.37;84.76
78198;BME280;67472;51.554;7.812;2023-10-13T14:58:37;99458.50;;;24.44;84.75
78198;BME280;67472;51.554;7.812;2023-10-13T15:01:26;99460.50;;;24.32;83.90